Time;durP1;ratioP1;P1;durP2;ratioP2;P2;SDS_P1;SDS_P2;PMS_P1;PMS_P2;Temp;Humidity;BMP_temperature;BMP_pressure;BME280_temperature;BME280_humidity;BME280_pressure;Samples;Min_cycle;Max_cycle;Signal;HPM_P1;HPM_P2
2022/03/31 00:02:03;;;;;;;;;;;;;;;2.09;90.07;97997.63;8395006;28;20208;-68
2022/03/31 00:06:04;;;;;;;;;;;;;;;2.17;90.25;98003.44;8396788;28;19994;-69
2022/03/31 00:10:05;;;;;;;;;;;;;;;2.20;90.11;98008.19;8396722;28;19975;-69
2022/03/31 00:14:06;;;;;;;;;;;;;;;2.14;89.78;97994.13;8396923;28;20089;-70
2022/03/31 00:18:07;;;;;;;;;;;;;;;2.09;90.18;97986.97;8396785;28;19986;-69
2022/03/31 00:22:08;;;;;;;;;;;;;;;2.06;90.29;97987.53;8396803;28;19971;-69
2022/03/31 00:26:09;;;;;;;;;;;;;;;2.10;90.16;97988.56;8394688;28;20058;-69
2022/03/31 00:30:11;;;;;;;;;;;;;;;2.09;90.01;97992.31;8396668;28;20024;-68
2022/03/31 00:34:12;;;;;;;;;;;;;;;2.03;90.16;97977.44;8394230;28;19971;-69
2022/03/31 00:38:12;;;;;;;;;;;;;;;2.03;90.30;97988.09;8396086;28;20499;-68
2022/03/31 00:42:15;;;;;;;;;;;;;;;2.04;90.35;97984.34;8396594;28;20006;-69
2022/03/31 00:46:20;;;;;;;;;;;;;;;2.04;90.79;97984.34;8395837;28;19968;-68
2022/03/31 00:50:22;;;;;;;;;;;;;;;2.07;90.81;97978.47;8395488;28;20024;-69
2022/03/31 00:54:25;;;;;;;;;;;;;;;2.12;90.47;97975.75;8395193;28;19971;-69
2022/03/31 00:58:26;;;;;;;;;;;;;;;2.09;90.56;97981.66;8394300;28;20033;-69
2022/03/31 01:02:32;;;;;;;;;;;;;;;2.06;90.48;97976.88;8395444;28;20474;-69
2022/03/31 01:06:34;;;;;;;;;;;;;;;2.11;90.37;97979.47;8396485;28;20403;-69
2022/03/31 01:10:34;;;;;;;;;;;;;;;2.10;90.75;97977.91;8395902;28;20423;-69
2022/03/31 01:14:35;;;;;;;;;;;;;;;2.06;90.50;97970.78;8395618;28;19978;-70
2022/03/31 01:18:36;;;;;;;;;;;;;;;2.13;90.59;97982.66;8395249;28;20093;-70
2022/03/31 01:22:37;;;;;;;;;;;;;;;2.13;90.50;97976.53;8394904;28;20006;-70
2022/03/31 01:26:40;;;;;;;;;;;;;;;2.12;90.87;97974.94;8393807;28;19985;-69
2022/03/31 01:30:41;;;;;;;;;;;;;;;2.09;90.67;97970.19;8395314;28;20032;-69
2022/03/31 01:34:42;;;;;;;;;;;;;;;2.00;90.73;97967.38;8394925;28;19971;-69
2022/03/31 01:38:43;;;;;;;;;;;;;;;2.01;90.88;97968.94;8394143;28;20018;-70
2022/03/31 01:42:43;;;;;;;;;;;;;;;2.06;90.73;97966.22;8393423;28;19971;-69
2022/03/31 01:46:44;;;;;;;;;;;;;;;2.00;90.69;97961.25;8375752;28;19971;-69
2022/03/31 01:50:45;;;;;;;;;;;;;;;1.99;90.74;97960.44;8394828;28;20021;-70
2022/03/31 01:54:46;;;;;;;;;;;;;;;2.06;90.58;97966.22;8394708;28;19978;-69
2022/03/31 01:58:46;;;;;;;;;;;;;;;2.12;90.32;97970.41;8393676;28;19991;-69
2022/03/31 02:02:47;;;;;;;;;;;;;;;1.97;89.87;97970.56;8394285;28;20001;-68
2022/03/31 02:06:48;;;;;;;;;;;;;;;2.02;90.10;97980.38;8394087;28;19991;-69
2022/03/31 02:10:49;;;;;;;;;;;;;;;1.95;89.99;97970.06;8408361;28;19971;-68
2022/03/31 02:14:50;;;;;;;;;;;;;;;1.96;89.87;97978.81;8393377;28;19975;-68
2022/03/31 02:18:51;;;;;;;;;;;;;;;1.90;89.72;97972.78;8391445;28;19993;-69
2022/03/31 02:22:52;;;;;;;;;;;;;;;1.84;90.18;97979.22;8393495;28;20020;-68
2022/03/31 02:26:52;;;;;;;;;;;;;;;1.86;90.16;97982.38;8392949;28;19974;-69
2022/03/31 02:30:53;;;;;;;;;;;;;;;1.85;89.93;97972.78;8393663;28;20411;-68
2022/03/31 02:34:54;;;;;;;;;;;;;;;1.76;89.82;97977.16;8393719;28;19997;-69
2022/03/31 02:38:55;;;;;;;;;;;;;;;1.71;90.04;97979.84;8398539;28;19987;-68
2022/03/31 02:42:59;;;;;;;;;;;;;;;1.70;89.39;97973.72;8399605;28;20061;-68
2022/03/31 02:46:59;;;;;;;;;;;;;;;1.69;89.79;97971.38;8399623;28;19967;-68
2022/03/31 02:51:00;;;;;;;;;;;;;;;1.62;89.69;97976.19;8397652;28;20036;-68
2022/03/31 02:59:20;;;;;;;;;;;;;;;1.59;89.40;97971.41;8386924;28;20069;-68
2022/03/31 03:03:21;;;;;;;;;;;;;;;1.49;89.46;97974.94;8399428;28;20350;-69
2022/03/31 03:07:22;;;;;;;;;;;;;;;1.54;89.86;97974.13;8398936;28;19998;-68
2022/03/31 03:11:23;;;;;;;;;;;;;;;1.42;89.91;97981.66;8399050;28;19971;-68
2022/03/31 03:15:25;;;;;;;;;;;;;;;1.44;89.76;97974.19;8397523;28;19971;-69
2022/03/31 03:19:25;;;;;;;;;;;;;;;1.40;89.50;97978.47;8398719;28;20073;-69
2022/03/31 03:23:30;;;;;;;;;;;;;;;1.36;89.71;97967.59;8397333;28;20025;-68
2022/03/31 03:27:31;;;;;;;;;;;;;;;1.34;89.82;97963.63;8394129;28;19983;-68
2022/03/31 03:31:32;;;;;;;;;;;;;;;1.35;89.84;97960.69;8384705;28;20492;-68
2022/03/31 03:35:33;;;;;;;;;;;;;;;1.34;90.23;97968.94;8377705;28;19975;-69
2022/03/31 03:39:34;;;;;;;;;;;;;;;1.40;90.14;97967.84;8398652;28;19994;-69
2022/03/31 03:43:35;;;;;;;;;;;;;;;1.39;90.30;97976.88;8384272;28;20074;-69
2022/03/31 03:47:36;;;;;;;;;;;;;;;1.40;89.96;97973.97;8392097;28;20066;-68
2022/03/31 03:51:36;;;;;;;;;;;;;;;1.41;89.96;97969.44;8393070;28;20370;-69
2022/03/31 03:55:37;;;;;;;;;;;;;;;1.28;90.40;97976.97;8397370;28;20009;-69
2022/03/31 03:59:38;;;;;;;;;;;;;;;1.31;89.68;97969.50;8396635;28;20438;-70
2022/03/31 04:03:39;;;;;;;;;;;;;;;1.37;89.78;97973.72;8396396;28;19974;-69
2022/03/31 04:07:41;;;;;;;;;;;;;;;1.35;89.73;97981.19;8397103;28;19994;-68
2022/03/31 04:11:41;;;;;;;;;;;;;;;1.15;90.50;97966.94;8396708;28;20438;-68
2022/03/31 04:15:42;;;;;;;;;;;;;;;1.15;90.18;97966.94;8395936;28;19967;-68
2022/03/31 04:19:43;;;;;;;;;;;;;;;1.08;90.34;97971.75;8396409;28;20033;-69
2022/03/31 04:23:44;;;;;;;;;;;;;;;1.13;90.09;97974.41;8395827;28;19967;-69
2022/03/31 04:27:44;;;;;;;;;;;;;;;1.06;90.69;97973.88;8396199;28;19997;-68
2022/03/31 04:31:48;;;;;;;;;;;;;;;1.02;90.59;97988.81;8390093;28;20077;-68
2022/03/31 04:35:52;;;;;;;;;;;;;;;1.04;90.30;97986.69;8394033;28;19968;-68
2022/03/31 04:39:53;;;;;;;;;;;;;;;1.08;90.79;97986.91;8393639;28;19983;-69
2022/03/31 04:43:53;;;;;;;;;;;;;;;1.06;90.55;97992.50;8395662;28;19968;-69
2022/03/31 04:47:54;;;;;;;;;;;;;;;1.07;90.39;97996.75;8395180;28;19967;-69
2022/03/31 04:51:55;;;;;;;;;;;;;;;1.05;89.75;98004.22;8394620;28;20020;-70
2022/03/31 04:55:56;;;;;;;;;;;;;;;1.02;90.38;98010.06;8395098;28;19967;-69
2022/03/31 04:59:57;;;;;;;;;;;;;;;0.97;90.70;98007.44;8395545;28;20056;-69
2022/03/31 05:03:57;;;;;;;;;;;;;;;0.89;90.67;98016.00;8395193;28;20053;-69
2022/03/31 05:07:59;;;;;;;;;;;;;;;0.85;91.25;98013.06;8395940;28;19987;-68
2022/03/31 05:12:00;;;;;;;;;;;;;;;0.91;91.38;98024.47;8394977;28;20032;-69
2022/03/31 05:16:02;;;;;;;;;;;;;;;0.92;90.63;98020.75;8395518;28;19967;-69
2022/03/31 05:20:04;;;;;;;;;;;;;;;0.99;90.39;98018.63;8395376;28;20367;-69
2022/03/31 05:24:05;;;;;;;;;;;;;;;0.96;90.07;98000.53;8394247;28;19967;-69
2022/03/31 05:28:06;;;;;;;;;;;;;;;0.99;89.91;98010.63;8392917;28;20054;-70
2022/03/31 05:32:08;;;;;;;;;;;;;;;0.91;88.87;98013.06;8394038;28;20382;-70
2022/03/31 05:36:08;;;;;;;;;;;;;;;0.86;89.33;98021.84;8391900;28;19975;-68
2022/03/31 05:40:10;;;;;;;;;;;;;;;0.88;89.34;98026.91;8393958;28;19989;-69
2022/03/31 05:44:11;;;;;;;;;;;;;;;0.84;89.33;98031.97;8395680;28;20548;-69
2022/03/31 05:48:12;;;;;;;;;;;;;;;0.76;89.81;98024.53;8394683;28;20000;-69
2022/03/31 05:52:13;;;;;;;;;;;;;;;0.81;89.60;98024.53;8394157;28;19983;-69
2022/03/31 05:56:14;;;;;;;;;;;;;;;0.85;89.65;98030.88;8394070;28;20003;-70
2022/03/31 06:00:16;;;;;;;;;;;;;;;0.84;89.06;98024.00;8389842;28;19994;-69
2022/03/31 06:04:20;;;;;;;;;;;;;;;0.86;89.02;98021.84;8393780;28;19975;-69
2022/03/31 06:08:21;;;;;;;;;;;;;;;0.99;88.69;98015.94;8393334;28;20077;-70
2022/03/31 06:12:22;;;;;;;;;;;;;;;1.00;88.40;98025.53;8391286;28;19982;-69
2022/03/31 06:16:23;;;;;;;;;;;;;;;1.07;88.42;98028.66;8390546;28;19978;-69
2022/03/31 06:20:24;;;;;;;;;;;;;;;0.99;87.87;98031.91;8392949;28;20028;-70
2022/03/31 06:24:24;;;;;;;;;;;;;;;1.03;87.73;98022.31;8393745;28;20021;-69
2022/03/31 06:28:31;;;;;;;;;;;;;;;1.04;87.17;98034.53;8374584;28;20062;-69
2022/03/31 06:32:32;;;;;;;;;;;;;;;1.06;87.19;98037.69;8393316;28;20441;-70
2022/03/31 06:36:32;;;;;;;;;;;;;;;1.04;86.75;98039.84;8391762;28;19967;-69
2022/03/31 06:40:37;;;;;;;;;;;;;;;1.11;87.15;98040.34;8393591;28;20430;-70
2022/03/31 06:44:38;;;;;;;;;;;;;;;1.09;87.03;98042.50;8394767;28;20482;-69
2022/03/31 06:48:41;;;;;;;;;;;;;;;1.15;86.68;98040.59;8394177;28;19978;-69
2022/03/31 06:52:42;;;;;;;;;;;;;;;1.23;85.99;98037.34;8394369;28;20389;-70
2022/03/31 06:56:43;;;;;;;;;;;;;;;1.27;85.97;98039.19;8394314;28;19982;-70
2022/03/31 07:00:44;;;;;;;;;;;;;;;1.37;85.64;98032.25;8393855;28;20089;-70
2022/03/31 07:04:45;;;;;;;;;;;;;;;1.40;85.41;98031.69;8393424;28;20342;-70
2022/03/31 07:08:47;;;;;;;;;;;;;;;1.38;85.46;98028.50;8393673;28;19978;-69
2022/03/31 07:12:48;;;;;;;;;;;;;;;1.45;85.42;98034.31;8393437;28;20388;-69
2022/03/31 07:16:49;;;;;;;;;;;;;;;1.59;85.15;98040.59;8393692;28;20461;-70
2022/03/31 07:20:52;;;;;;;;;;;;;;;1.67;85.32;98022.19;8393550;28;19991;-70
2022/03/31 07:24:53;;;;;;;;;;;;;;;1.70;85.14;98020.84;8396998;28;20009;-69
2022/03/31 07:28:54;;;;;;;;;;;;;;;1.81;84.88;98038.31;8398952;28;19971;-69
2022/03/31 07:33:00;;;;;;;;;;;;;;;1.80;83.49;98020.75;8399365;28;19975;-70
2022/03/31 07:37:01;;;;;;;;;;;;;;;1.76;83.37;98024.25;8399423;28;19983;-70
2022/03/31 07:41:02;;;;;;;;;;;;;;;1.73;83.78;98041.59;8398735;28;19982;-70
2022/03/31 07:45:03;;;;;;;;;;;;;;;1.82;83.47;98045.25;8398449;28;20063;-70
2022/03/31 07:49:04;;;;;;;;;;;;;;;1.85;84.08;98044.69;8399334;28;19982;-71
2022/03/31 07:53:05;;;;;;;;;;;;;;;1.87;84.12;98047.06;8397108;28;20036;-70
2022/03/31 07:57:07;;;;;;;;;;;;;;;1.88;83.84;98033.50;8398648;28;20052;-70
2022/03/31 08:01:08;;;;;;;;;;;;;;;1.94;83.12;98037.72;8398710;28;20021;-70
2022/03/31 08:05:09;;;;;;;;;;;;;;;2.01;83.07;98038.16;8398722;28;20089;-69
2022/03/31 08:09:13;;;;;;;;;;;;;;;1.99;82.43;98035.00;8396600;28;19975;-69
2022/03/31 08:13:21;;;;;;;;;;;;;;;1.98;82.65;98044.06;8398245;28;19971;-70
2022/03/31 08:17:23;;;;;;;;;;;;;;;2.13;82.37;98041.25;8396984;28;20427;-69
2022/03/31 08:21:24;;;;;;;;;;;;;;;2.23;82.81;98050.22;8398448;28;19991;-70
2022/03/31 08:25:25;;;;;;;;;;;;;;;2.23;82.61;98047.56;8398171;28;20002;-70
2022/03/31 08:29:26;;;;;;;;;;;;;;;2.29;82.54;98043.78;8395197;28;19971;-70
2022/03/31 08:33:26;;;;;;;;;;;;;;;2.37;82.31;98053.84;8397402;28;20081;-70
2022/03/31 08:37:27;;;;;;;;;;;;;;;2.39;82.03;98049.03;8396244;28;20024;-70
2022/03/31 08:41:28;;;;;;;;;;;;;;;2.35;81.73;98058.66;8395192;28;19987;-70
2022/03/31 08:45:29;;;;;;;;;;;;;;;2.45;82.02;98075.34;8397422;28;19981;-71
2022/03/31 08:49:31;;;;;;;;;;;;;;;2.60;82.01;98066.41;8397475;28;19979;-70
2022/03/31 08:53:32;;;;;;;;;;;;;;;2.77;81.23;98066.75;8396799;28;20178;-70
2022/03/31 08:57:43;;;;;;;;;;;;;;;2.75;80.81;98063.56;8396812;28;20029;-70
2022/03/31 09:01:44;;;;;;;;;;;;;;;2.81;81.08;98051.78;8393999;28;20082;-70
2022/03/31 09:05:54;;;;;;;;;;;;;;;2.91;81.14;98056.19;8378206;28;19992;-70
2022/03/31 09:09:55;;;;;;;;;;;;;;;2.95;80.62;98058.03;8377721;28;19976;-70
2022/03/31 09:13:56;;;;;;;;;;;;;;;3.02;79.99;98056.88;8362564;28;20070;-70
2022/03/31 09:17:58;;;;;;;;;;;;;;;3.14;78.98;98062.59;8393725;28;20070;-69
2022/03/31 09:21:59;;;;;;;;;;;;;;;3.22;79.25;98056.66;8380538;28;20037;-69
2022/03/31 09:26:06;;;;;;;;;;;;;;;3.30;78.97;98070.16;8395306;28;19971;-69
2022/03/31 09:30:07;;;;;;;;;;;;;;;3.50;78.40;98074.41;8395412;28;19983;-69
2022/03/31 09:34:11;;;;;;;;;;;;;;;3.45;78.38;98071.81;8394824;28;19978;-70
2022/03/31 09:38:13;;;;;;;;;;;;;;;3.46;77.64;98070.75;8393196;28;19975;-69
2022/03/31 09:42:17;;;;;;;;;;;;;;;3.42;78.12;98066.25;8394377;28;20040;-70
2022/03/31 09:46:20;;;;;;;;;;;;;;;3.53;78.01;98057.84;8394231;28;20009;-70
2022/03/31 09:50:22;;;;;;;;;;;;;;;3.65;78.13;98060.84;8394993;28;20029;-69
2022/03/31 09:54:24;;;;;;;;;;;;;;;3.76;77.84;98048.94;8394521;28;19965;-70
2022/03/31 09:58:24;;;;;;;;;;;;;;;3.82;77.03;98045.13;8392658;28;19927;-71
2022/03/31 10:02:26;;;;;;;;;;;;;;;3.88;76.86;98058.41;8410468;28;20003;-70
2022/03/31 10:06:27;;;;;;;;;;;;;;;3.92;76.46;98043.38;8426658;28;19921;-70
2022/03/31 10:10:28;;;;;;;;;;;;;;;3.85;75.36;98032.28;8394384;28;19924;-71
2022/03/31 10:14:35;;;;;;;;;;;;;;;3.95;75.45;98021.44;8394749;28;19921;-70
2022/03/31 10:18:36;;;;;;;;;;;;;;;4.11;75.76;98030.78;8427118;28;19924;-70
2022/03/31 10:26:58;;;;;;;;;;;;;;;4.39;74.75;98024.41;8394244;28;20019;-70
2022/03/31 10:31:09;;;;;;;;;;;;;;;4.60;75.41;98028.28;8394383;28;19946;-70
2022/03/31 10:35:19;;;;;;;;;;;;;;;4.83;74.08;98031.88;8424971;28;19927;-70
2022/03/31 10:39:21;;;;;;;;;;;;;;;4.95;73.38;98018.03;8394256;28;19920;-70
2022/03/31 10:43:23;;;;;;;;;;;;;;;5.11;71.99;98016.63;8394229;28;19920;-71
2022/03/31 10:47:43;;;;;;;;;;;;;;;5.07;71.99;98015.63;8356081;28;19951;-70
2022/03/31 10:51:45;;;;;;;;;;;;;;;5.16;71.76;98018.41;8389860;28;20398;-70
2022/03/31 10:55:50;;;;;;;;;;;;;;;5.19;71.80;98002.53;8356401;28;19924;-70
2022/03/31 10:59:52;;;;;;;;;;;;;;;5.26;70.65;98000.25;8394163;28;19920;-70
2022/03/31 11:03:58;;;;;;;;;;;;;;;5.26;71.44;97997.56;8378884;28;19920;-71
2022/03/31 11:08:03;;;;;;;;;;;;;;;5.49;71.40;97991.16;8395535;28;20280;-70
2022/03/31 11:12:04;;;;;;;;;;;;;;;5.73;70.41;97984.72;8379091;28;19921;-70
2022/03/31 11:16:06;;;;;;;;;;;;;;;5.61;70.08;97992.50;8395837;28;19925;-70
2022/03/31 11:20:16;;;;;;;;;;;;;;;5.61;69.38;97987.13;8395643;28;19924;-69
2022/03/31 11:24:27;;;;;;;;;;;;;;;5.52;69.32;97985.19;8381277;28;20406;-69
2022/03/31 11:28:29;;;;;;;;;;;;;;;5.59;69.23;97981.31;8365956;28;19951;-69
2022/03/31 11:32:31;;;;;;;;;;;;;;;5.78;69.43;97971.19;8365996;28;20412;-69
2022/03/31 11:36:37;;;;;;;;;;;;;;;5.98;69.04;97991.38;8365936;28;20032;-69
2022/03/31 11:40:43;;;;;;;;;;;;;;;6.23;68.07;97978.16;8365893;28;19928;-70
2022/03/31 11:44:44;;;;;;;;;;;;;;;6.40;66.62;97982.78;8371487;28;20387;-70
2022/03/31 11:48:46;;;;;;;;;;;;;;;6.15;66.86;97973.53;8374379;28;20058;-70
2022/03/31 11:52:48;;;;;;;;;;;;;;;6.14;66.81;97990.69;8398655;28;19931;-70
2022/03/31 11:57:09;;;;;;;;;;;;;;;6.17;66.97;97984.75;8398472;28;19920;-70
2022/03/31 12:01:10;;;;;;;;;;;;;;;5.99;66.79;97988.41;8397914;28;19928;-70
2022/03/31 12:05:14;;;;;;;;;;;;;;;5.94;67.60;97991.19;8398415;28;19920;-69
2022/03/31 12:09:15;;;;;;;;;;;;;;;5.64;67.47;98002.63;8397382;28;19920;-70
2022/03/31 12:13:15;;;;;;;;;;;;;;;5.55;68.42;97993.72;8398002;28;19928;-70
2022/03/31 12:17:18;;;;;;;;;;;;;;;5.52;69.24;97990.53;8397386;28;20007;-69
2022/03/31 12:21:19;;;;;;;;;;;;;;;5.48;68.97;97994.94;8396849;28;20403;-71
2022/03/31 12:25:27;;;;;;;;;;;;;;;5.41;69.13;97983.84;8395708;28;20452;-70
2022/03/31 12:29:31;;;;;;;;;;;;;;;5.37;69.22;97982.84;8397513;28;19920;-70
2022/03/31 12:33:34;;;;;;;;;;;;;;;5.28;69.63;97990.03;8397208;28;20437;-70
2022/03/31 12:37:36;;;;;;;;;;;;;;;5.17;69.72;97983.31;8395045;28;20398;-70
2022/03/31 12:41:38;;;;;;;;;;;;;;;5.15;69.58;97974.78;8396505;28;19966;-70
2022/03/31 12:45:39;;;;;;;;;;;;;;;5.16;70.20;97973.69;8396359;28;19921;-70
2022/03/31 12:49:40;;;;;;;;;;;;;;;5.01;70.06;97974.03;8394238;28;20371;-70
2022/03/31 12:53:42;;;;;;;;;;;;;;;5.02;70.14;97954.19;8408460;28;19920;-70
2022/03/31 12:57:42;;;;;;;;;;;;;;;5.07;70.62;97962.13;8396358;28;19921;-70
2022/03/31 13:02:02;;;;;;;;;;;;;;;4.96;70.72;97950.84;8395942;28;19920;-71
2022/03/31 13:06:03;;;;;;;;;;;;;;;4.98;71.08;97955.88;8395177;28;19927;-70
2022/03/31 13:10:07;;;;;;;;;;;;;;;4.91;71.00;97952.81;8390945;28;19965;-71
2022/03/31 13:14:10;;;;;;;;;;;;;;;4.92;71.08;97943.69;8409895;28;19997;-70
2022/03/31 13:18:11;;;;;;;;;;;;;;;4.90;70.96;97945.88;8395566;28;19927;-70
2022/03/31 13:22:14;;;;;;;;;;;;;;;4.81;71.46;97942.34;8393742;28;19920;-71
2022/03/31 13:26:17;;;;;;;;;;;;;;;4.67;71.27;97927.09;8360137;28;20506;-70
2022/03/31 13:30:18;;;;;;;;;;;;;;;4.76;71.51;97937.09;8394955;28;19927;-70
2022/03/31 13:34:24;;;;;;;;;;;;;;;4.74;71.73;97931.25;8393736;28;20294;-70
2022/03/31 13:38:25;;;;;;;;;;;;;;;4.73;71.81;97929.66;8394479;28;20406;-70
2022/03/31 13:42:26;;;;;;;;;;;;;;;4.70;72.81;97931.06;8394851;28;20374;-70
2022/03/31 13:46:27;;;;;;;;;;;;;;;4.66;72.39;97914.81;8394599;28;19925;-70
2022/03/31 13:50:30;;;;;;;;;;;;;;;4.60;72.56;97916.00;8394630;28;19924;-70
2022/03/31 13:54:34;;;;;;;;;;;;;;;4.52;72.85;97919.38;8394861;28;19921;-70
2022/03/31 14:02:55;;;;;;;;;;;;;;;4.66;72.29;97914.81;8394695;28;20001;-70
2022/03/31 14:06:57;;;;;;;;;;;;;;;4.57;72.75;97916.59;8391661;28;19925;-70
2022/03/31 14:11:00;;;;;;;;;;;;;;;4.52;72.45;97903.34;8364040;28;20015;-71
2022/03/31 14:15:01;;;;;;;;;;;;;;;4.47;72.86;97900.75;8390826;28;19921;-70
2022/03/31 14:19:03;;;;;;;;;;;;;;;4.44;73.23;97906.69;8393949;28;19963;-70
2022/03/31 14:23:04;;;;;;;;;;;;;;;4.45;73.07;97902.94;8392704;28;19950;-70
2022/03/31 14:27:05;;;;;;;;;;;;;;;4.55;72.77;97896.59;8394302;28;19920;-70
2022/03/31 14:31:12;;;;;;;;;;;;;;;4.50;72.98;97892.13;8394394;28;19920;-70
2022/03/31 14:35:14;;;;;;;;;;;;;;;4.44;73.09;97896.00;8414528;28;20007;-70
2022/03/31 14:39:15;;;;;;;;;;;;;;;4.45;73.08;97886.88;8400654;28;19924;-70
2022/03/31 14:43:16;;;;;;;;;;;;;;;4.39;72.84;97888.06;8423969;28;19920;-70
2022/03/31 14:47:17;;;;;;;;;;;;;;;4.34;72.59;97893.53;8396520;28;19924;-70
2022/03/31 14:51:21;;;;;;;;;;;;;;;4.33;73.08;97883.94;8366143;28;20011;-70
2022/03/31 14:55:22;;;;;;;;;;;;;;;4.35;73.27;97892.44;8400006;28;19921;-71
2022/03/31 14:59:22;;;;;;;;;;;;;;;4.35;73.12;97881.75;8398733;28;19924;-70
2022/03/31 15:03:23;;;;;;;;;;;;;;;4.37;73.03;97879.59;8399385;28;19927;-70
2022/03/31 15:07:26;;;;;;;;;;;;;;;4.42;73.11;97874.13;8395422;28;19921;-70
2022/03/31 15:15:47;;;;;;;;;;;;;;;4.33;72.92;97867.91;8400208;28;20394;-70
2022/03/31 15:19:47;;;;;;;;;;;;;;;4.37;73.47;97858.19;8378732;28;19963;-70
2022/03/31 15:23:48;;;;;;;;;;;;;;;4.38;72.93;97851.78;8366389;28;20015;-70
2022/03/31 15:27:49;;;;;;;;;;;;;;;4.37;73.05;97858.19;8390655;28;20006;-71
2022/03/31 15:31:50;;;;;;;;;;;;;;;4.45;73.36;97857.47;8396848;28;19924;-70
2022/03/31 15:35:53;;;;;;;;;;;;;;;4.44;73.03;97847.88;8398383;28;19927;-70
2022/03/31 15:39:54;;;;;;;;;;;;;;;4.32;73.25;97855.63;8376749;28;20024;-71
2022/03/31 15:43:55;;;;;;;;;;;;;;;4.33;73.02;97851.88;8364631;28;19920;-70
2022/03/31 15:47:57;;;;;;;;;;;;;;;4.38;72.81;97849.09;8369466;28;19971;-70
2022/03/31 15:51:58;;;;;;;;;;;;;;;4.40;72.87;97856.78;8398792;28;20370;-70
2022/03/31 15:55:59;;;;;;;;;;;;;;;4.42;72.50;97844.72;8398075;28;20380;-70
2022/03/31 16:00:00;;;;;;;;;;;;;;;4.39;72.82;97845.31;8398021;28;19973;-71
2022/03/31 16:04:01;;;;;;;;;;;;;;;4.34;72.35;97848.09;8397193;28;19924;-70
2022/03/31 16:08:02;;;;;;;;;;;;;;;4.39;72.34;97850.66;8396814;28;19920;-70
2022/03/31 16:12:03;;;;;;;;;;;;;;;4.40;71.96;97846.09;8389292;28;19927;-70
2022/03/31 16:16:05;;;;;;;;;;;;;;;4.43;71.05;97851.66;8397833;28;19956;-70
2022/03/31 16:20:05;;;;;;;;;;;;;;;4.37;71.45;97852.06;8385085;28;20316;-70
2022/03/31 16:24:06;;;;;;;;;;;;;;;4.23;71.43;97857.41;8364608;28;20168;-69
2022/03/31 16:28:07;;;;;;;;;;;;;;;4.28;71.58;97854.66;8364061;28;20003;-72
2022/03/31 16:32:08;;;;;;;;;;;;;;;4.30;71.10;97857.81;8392504;28;19994;-71
2022/03/31 16:36:10;;;;;;;;;;;;;;;4.27;71.00;97853.06;8397001;28;19920;-71
2022/03/31 16:40:11;;;;;;;;;;;;;;;4.19;71.63;97856.41;8396668;28;19920;-71
2022/03/31 16:44:13;;;;;;;;;;;;;;;4.21;71.71;97854.25;8390415;28;20288;-71
2022/03/31 16:48:14;;;;;;;;;;;;;;;4.22;71.38;97850.50;8370619;28;19920;-70
2022/03/31 16:52:15;;;;;;;;;;;;;;;4.29;70.95;97856.22;8377591;28;19985;-71
2022/03/31 16:56:17;;;;;;;;;;;;;;;4.17;70.99;97853.28;8395340;28;19931;-71
2022/03/31 17:00:18;;;;;;;;;;;;;;;4.15;70.69;97861.56;8396421;28;19920;-70
2022/03/31 17:04:19;;;;;;;;;;;;;;;4.12;70.70;97872.06;8396213;28;19920;-70
2022/03/31 17:08:20;;;;;;;;;;;;;;;4.12;70.30;97872.06;8395040;28;19948;-69
2022/03/31 17:12:22;;;;;;;;;;;;;;;4.20;69.80;97868.69;8395712;28;19920;-70
2022/03/31 17:16:23;;;;;;;;;;;;;;;4.15;69.70;97872.25;8393173;28;19920;-70
2022/03/31 17:20:25;;;;;;;;;;;;;;;4.13;69.70;97873.63;8394703;28;19932;-70
2022/03/31 17:24:27;;;;;;;;;;;;;;;4.12;69.20;97877.41;8395465;28;20410;-70
2022/03/31 17:28:27;;;;;;;;;;;;;;;4.14;68.44;97885.91;8359905;28;19927;-71
2022/03/31 17:32:28;;;;;;;;;;;;;;;4.16;67.92;97886.41;8390442;28;20442;-70
2022/03/31 17:36:30;;;;;;;;;;;;;;;4.15;67.89;97887.50;8393205;28;20019;-69
2022/03/31 17:40:31;;;;;;;;;;;;;;;4.08;67.55;97892.44;8391609;28;19927;-69
2022/03/31 17:44:32;;;;;;;;;;;;;;;4.10;67.16;97898.28;8394386;28;19920;-70
2022/03/31 17:48:33;;;;;;;;;;;;;;;4.14;66.14;97891.25;8409148;28;19927;-71
2022/03/31 17:52:34;;;;;;;;;;;;;;;4.05;66.46;97898.38;8395050;28;19959;-70
2022/03/31 17:56:36;;;;;;;;;;;;;;;4.08;66.23;97893.22;8395964;28;19920;-70
2022/03/31 18:00:38;;;;;;;;;;;;;;;4.06;65.61;97899.97;8396344;28;19924;-70
2022/03/31 18:04:42;;;;;;;;;;;;;;;4.03;65.06;97906.69;8395213;28;20000;-70
2022/03/31 18:08:44;;;;;;;;;;;;;;;4.07;64.89;97906.91;8407734;28;19967;-70
2022/03/31 18:12:45;;;;;;;;;;;;;;;4.04;64.36;97907.47;8390561;28;19943;-70
2022/03/31 18:16:46;;;;;;;;;;;;;;;4.07;63.32;97912.25;8391737;28;19936;-70
2022/03/31 18:20:47;;;;;;;;;;;;;;;4.07;63.40;97922.94;8393465;28;19931;-72
2022/03/31 18:24:48;;;;;;;;;;;;;;;4.11;61.73;97914.03;8392207;28;19927;-71
2022/03/31 18:28:48;;;;;;;;;;;;;;;4.10;61.37;97916.97;8378658;28;19920;-70
2022/03/31 18:37:09;;;;;;;;;;;;;;;4.07;60.52;97922.94;8377723;28;19927;-70
2022/03/31 18:41:10;;;;;;;;;;;;;;;4.05;60.21;97919.75;8392849;28;19931;-70
2022/03/31 18:45:11;;;;;;;;;;;;;;;4.06;60.10;97916.00;8393712;28;20011;-71
2022/03/31 18:49:16;;;;;;;;;;;;;;;4.09;59.76;97910.06;8407476;28;19927;-70
2022/03/31 18:53:17;;;;;;;;;;;;;;;4.07;59.57;97922.94;8394043;28;19955;-71
2022/03/31 18:57:18;;;;;;;;;;;;;;;3.98;59.03;97924.66;8363751;28;19928;-70
2022/03/31 19:01:20;;;;;;;;;;;;;;;3.94;59.64;97929.03;8380641;28;20034;-71
2022/03/31 19:05:21;;;;;;;;;;;;;;;4.01;59.27;97940.13;8392601;28;20426;-70
2022/03/31 19:09:23;;;;;;;;;;;;;;;4.04;58.99;97918.16;8390227;28;19963;-70
2022/03/31 19:13:24;;;;;;;;;;;;;;;3.91;59.19;97935.75;8388427;28;19958;-70
2022/03/31 19:17:24;;;;;;;;;;;;;;;3.85;59.55;97925.44;8392172;28;19920;-70
2022/03/31 19:21:25;;;;;;;;;;;;;;;3.88;58.92;97925.66;8399033;28;19927;-70
2022/03/31 19:25:26;;;;;;;;;;;;;;;3.90;58.85;97917.34;8387634;28;20096;-70
2022/03/31 19:29:27;;;;;;;;;;;;;;;3.80;59.38;97929.81;8399025;28;19920;-70
2022/03/31 19:33:29;;;;;;;;;;;;;;;3.86;59.15;97927.03;8414108;28;19956;-70
2022/03/31 19:37:30;;;;;;;;;;;;;;;3.82;59.41;97927.59;8396509;28;20341;-70
2022/03/31 19:41:32;;;;;;;;;;;;;;;3.75;59.65;97921.84;8398022;28;19927;-70
2022/03/31 19:45:35;;;;;;;;;;;;;;;3.82;59.20;97922.28;8396528;28;19928;-71
2022/03/31 19:49:36;;;;;;;;;;;;;;;3.90;58.59;97922.69;8395147;28;19950;-70
2022/03/31 19:53:37;;;;;;;;;;;;;;;3.92;58.14;97910.63;8397717;28;20338;-70
2022/03/31 19:57:38;;;;;;;;;;;;;;;3.90;58.35;97922.69;8395054;28;19920;-70
2022/03/31 20:01:39;;;;;;;;;;;;;;;3.89;57.88;97910.41;8395066;28;20334;-70
2022/03/31 20:05:40;;;;;;;;;;;;;;;3.96;57.39;97900.16;8396264;28;19947;-69
2022/03/31 20:09:41;;;;;;;;;;;;;;;3.89;58.20;97905.06;8396918;28;19946;-70
2022/03/31 20:13:42;;;;;;;;;;;;;;;3.88;57.44;97893.59;8397608;28;19920;-70
2022/03/31 20:17:43;;;;;;;;;;;;;;;3.86;56.45;97900.34;8397556;28;19943;-70
2022/03/31 20:21:45;;;;;;;;;;;;;;;3.80;57.33;97892.41;8396745;28;20375;-70
2022/03/31 20:25:46;;;;;;;;;;;;;;;3.90;56.71;97879.97;8397286;28;19931;-71
2022/03/31 20:29:47;;;;;;;;;;;;;;;3.81;57.37;97883.28;8396577;28;19928;-70
2022/03/31 20:33:49;;;;;;;;;;;;;;;3.82;57.47;97874.19;8394003;28;19952;-71
2022/03/31 20:37:50;;;;;;;;;;;;;;;3.80;57.37;97881.72;8392578;28;19924;-70
2022/03/31 20:41:52;;;;;;;;;;;;;;;3.74;57.17;97866.88;8395955;28;19920;-71
2022/03/31 20:45:52;;;;;;;;;;;;;;;3.71;57.13;97872.78;8376429;28;20065;-71
2022/03/31 20:49:54;;;;;;;;;;;;;;;3.71;56.37;97862.13;8394367;28;20280;-70
2022/03/31 20:53:54;;;;;;;;;;;;;;;3.68;56.58;97862.72;8396751;28;20009;-70
2022/03/31 20:57:55;;;;;;;;;;;;;;;3.63;56.37;97859.34;8396319;28;19921;-70
2022/03/31 21:01:56;;;;;;;;;;;;;;;3.63;55.34;97846.78;8394996;28;20399;-70
2022/03/31 21:05:57;;;;;;;;;;;;;;;3.55;56.13;97847.44;8396365;28;19962;-71
2022/03/31 21:09:58;;;;;;;;;;;;;;;3.50;56.13;97844.88;8396046;28;20033;-70
2022/03/31 21:13:59;;;;;;;;;;;;;;;3.51;55.22;97835.78;8396723;28;20054;-70
2022/03/31 21:17:59;;;;;;;;;;;;;;;3.50;54.80;97844.06;8395310;28;19956;-71
2022/03/31 21:22:00;;;;;;;;;;;;;;;3.49;54.24;97843.28;8394063;28;19920;-70
2022/03/31 21:26:01;;;;;;;;;;;;;;;3.47;54.28;97850.78;8394307;28;19966;-70
2022/03/31 21:30:03;;;;;;;;;;;;;;;3.45;54.04;97842.28;8406219;28;20219;-70
2022/03/31 21:34:05;;;;;;;;;;;;;;;3.40;54.00;97845.03;8393903;28;19920;-70
2022/03/31 21:38:06;;;;;;;;;;;;;;;3.39;53.92;97846.13;8394493;28;19924;-70